createdAt,value
2019-01-12T00:01:10.826Z,100.50
2019-01-12T00:03:40.362Z,93.27
2019-01-12T00:06:10.183Z,90.27
2019-01-12T00:08:39.916Z,92.97
2019-01-12T00:11:09.732Z,89.20
2019-01-12T00:13:39.454Z,91.77
2019-01-12T00:16:09.288Z,93.50
2019-01-12T00:18:39.062Z,95.17
2019-01-12T00:21:08.846Z,92.93
2019-01-12T00:23:38.356Z,91.77
2019-01-12T00:26:08.313Z,90.60
2019-01-12T00:28:39.796Z,94.50
2019-01-12T00:31:09.812Z,94.97
2019-01-12T00:33:39.637Z,96.27
2019-01-12T00:36:09.463Z,95.40
2019-01-12T00:38:39.099Z,90.93
2019-01-12T00:41:08.817Z,89.80
2019-01-12T00:43:38.750Z,92.80
2019-01-12T00:46:09.684Z,85.73
2019-01-12T00:48:39.423Z,83.10
2019-01-12T00:51:09.048Z,79.57
2019-01-12T00:53:38.777Z,78.83
2019-01-12T00:56:08.608Z,83.90
2019-01-12T00:58:39.919Z,89.67
2019-01-12T01:01:11.276Z,89.37
2019-01-12T01:03:41.979Z,89.37
2019-01-12T01:06:11.814Z,88.63
2019-01-12T01:08:41.857Z,87.80
2019-01-12T01:11:11.694Z,85.27
2019-01-12T01:13:41.515Z,82.97
2019-01-12T01:16:13.349Z,81.67
2019-01-12T01:18:42.707Z,79.70
2019-01-12T01:21:12.529Z,72.77
2019-01-12T01:23:42.456Z,71.50
2019-01-12T01:26:12.305Z,72.00
2019-01-12T01:28:42.126Z,80.63
2019-01-12T01:31:11.645Z,79.57
2019-01-12T01:33:41.460Z,82.27
2019-01-12T01:36:11.413Z,83.97
2019-01-12T01:38:41.128Z,84.90
2019-01-12T01:41:10.959Z,83.63
2019-01-12T01:43:40.792Z,79.43
2019-01-12T01:46:10.728Z,76.30
2019-01-12T01:48:40.553Z,75.37
2019-01-12T01:51:10.400Z,78.40
2019-01-12T01:53:40.204Z,81.13
2019-01-12T01:56:10.037Z,85.07
2019-01-12T01:58:39.652Z,85.97
2019-01-12T02:01:09.610Z,85.77
2019-01-12T02:03:39.523Z,79.10
2019-01-12T02:06:09.372Z,76.80
2019-01-12T02:08:39.182Z,69.67
2019-01-12T02:11:09.015Z,69.17
2019-01-12T02:13:38.844Z,72.73
2019-01-12T02:16:08.693Z,77.97
2019-01-12T02:18:38.505Z,72.20
2019-01-12T02:21:08.368Z,81.03
2019-01-12T02:23:38.056Z,84.23
2019-01-12T02:26:07.800Z,83.37
2019-01-12T02:28:37.649Z,77.83
2019-01-12T02:31:07.569Z,75.13
2019-01-12T02:33:37.489Z,70.87
2019-01-12T02:36:07.516Z,70.77
2019-01-12T02:38:37.329Z,70.47
2019-01-12T02:41:07.162Z,68.40
2019-01-12T02:43:36.893Z,66.60
2019-01-12T02:46:06.745Z,63.93
2019-01-12T02:48:36.662Z,63.63
2019-01-12T02:51:06.471Z,64.27
2019-01-12T02:53:36.211Z,60.90
2019-01-12T02:56:05.928Z,57.97
2019-01-12T02:58:35.880Z,58.43
2019-01-12T03:01:05.791Z,54.70
2019-01-12T03:03:35.326Z,55.30
2019-01-12T03:06:05.160Z,56.07
2019-01-12T03:08:35.081Z,51.37
2019-01-12T03:11:04.954Z,51.53
2019-01-12T03:13:34.856Z,51.80
2019-01-12T03:16:04.787Z,48.67
2019-01-12T03:18:34.722Z,48.80
2019-01-12T03:21:04.365Z,48.60
2019-01-12T03:23:34.159Z,47.27
2019-01-12T03:26:04.112Z,45.20
2019-01-12T03:28:33.811Z,43.13
2019-01-12T03:31:03.684Z,43.03
2019-01-12T03:33:33.572Z,40.57
2019-01-12T03:36:03.424Z,41.07
2019-01-12T03:38:33.233Z,40.30
2019-01-12T03:41:03.293Z,38.27
2019-01-12T03:43:34.566Z,38.90
2019-01-12T03:46:04.278Z,38.07
2019-01-12T03:48:33.984Z,38.80
2019-01-12T03:51:03.732Z,38.57
2019-01-12T03:53:33.449Z,36.60
2019-01-12T03:56:03.086Z,35.13
2019-01-12T03:58:32.902Z,34.60
2019-01-12T04:01:02.841Z,33.40
2019-01-12T04:03:32.772Z,32.90
2019-01-12T04:06:02.612Z,31.20
2019-01-12T04:08:32.421Z,31.07
2019-01-12T04:11:02.359Z,32.00
2019-01-12T04:13:32.219Z,30.97
2019-01-12T04:16:01.816Z,30.23
2019-01-12T04:18:31.746Z,29.80
2019-01-12T04:21:01.669Z,29.87
2019-01-12T04:23:31.512Z,32.20
2019-01-12T04:26:01.343Z,29.10
2019-01-12T04:28:30.882Z,30.80
2019-01-12T04:31:00.783Z,29.50
2019-01-12T04:33:30.444Z,30.77
2019-01-12T04:36:00.139Z,31.30
2019-01-12T04:38:30.080Z,32.23
2019-01-12T04:40:59.897Z,30.00
2019-01-12T04:43:29.838Z,29.83
2019-01-12T04:45:59.548Z,29.60
2019-01-12T04:48:29.304Z,30.43
2019-01-12T04:50:59.003Z,31.13
2019-01-12T04:53:28.639Z,30.83
2019-01-12T04:55:58.453Z,30.80
2019-01-12T04:58:28.268Z,30.57
2019-01-12T05:01:01.050Z,31.97
2019-01-12T05:03:30.504Z,32.53
2019-01-12T05:06:00.254Z,30.63
2019-01-12T05:08:29.956Z,32.50
2019-01-12T05:10:59.685Z,31.60
2019-01-12T05:13:29.543Z,31.80
2019-01-12T05:15:59.242Z,32.30
2019-01-12T05:18:28.980Z,31.80
2019-01-12T05:20:58.806Z,31.10
2019-01-12T05:23:28.740Z,32.40
2019-01-12T05:25:58.569Z,32.00
2019-01-12T05:28:28.097Z,30.40
2019-01-12T05:30:57.935Z,30.23
2019-01-12T05:33:27.847Z,31.80
2019-01-12T05:35:59.039Z,30.67
2019-01-12T05:38:28.728Z,31.80
2019-01-12T05:40:58.560Z,31.80
2019-01-12T05:43:28.290Z,29.17
2019-01-12T05:45:58.026Z,30.63
2019-01-12T05:48:27.865Z,29.47
2019-01-12T05:50:57.664Z,29.27
2019-01-12T05:53:27.320Z,28.50
2019-01-12T05:55:59.129Z,29.10
2019-01-12T05:58:28.799Z,29.93
2019-01-12T06:01:00.065Z,28.10
2019-01-12T06:03:31.707Z,27.10
2019-01-12T06:06:01.557Z,27.37
2019-01-12T06:08:31.218Z,26.90
2019-01-12T06:11:01.118Z,28.13
2019-01-12T06:13:30.963Z,26.47
2019-01-12T06:16:00.783Z,27.17
2019-01-12T06:18:30.419Z,27.23
2019-01-12T06:21:00.125Z,27.00
2019-01-12T06:23:29.959Z,24.30
2019-01-12T06:26:03.867Z,23.77
2019-01-12T06:28:31.146Z,24.60
2019-01-12T06:31:00.998Z,24.60
2019-01-12T06:33:30.929Z,23.70
2019-01-12T06:36:00.738Z,23.17
2019-01-12T06:38:30.485Z,23.63
2019-01-12T06:41:00.443Z,23.43
2019-01-12T06:43:30.238Z,22.77
2019-01-12T06:46:00.061Z,20.57
2019-01-12T06:48:29.889Z,20.50
2019-01-12T06:50:59.711Z,19.67
2019-01-12T06:53:29.567Z,22.70
2019-01-12T06:55:59.286Z,19.53
2019-01-12T06:58:29.124Z,19.37
2019-01-12T07:00:58.955Z,19.57
2019-01-12T07:03:28.880Z,19.70
2019-01-12T07:05:58.607Z,18.20
2019-01-12T07:08:28.356Z,18.90
2019-01-12T07:10:58.253Z,17.90
2019-01-12T07:13:27.786Z,15.83
2019-01-12T07:15:57.704Z,15.17
2019-01-12T07:18:27.550Z,16.47
2019-01-12T07:20:58.161Z,22.20
2019-01-12T07:23:28.126Z,16.67
2019-01-12T07:25:58.053Z,15.37
2019-01-12T07:28:27.877Z,15.73
2019-01-12T07:30:57.407Z,16.97
2019-01-12T07:33:27.351Z,15.10
2019-01-12T07:35:57.093Z,14.13
2019-01-12T07:38:26.904Z,14.00
2019-01-12T07:40:58.276Z,14.70
2019-01-12T07:43:28.189Z,14.93
2019-01-12T07:45:58.115Z,16.50
2019-01-12T07:48:28.846Z,21.23
2019-01-12T07:50:58.252Z,15.30
2019-01-12T07:53:28.129Z,18.67
2019-01-12T07:55:57.854Z,17.60
2019-01-12T07:58:27.779Z,17.97
2019-01-12T08:00:57.493Z,19.17
2019-01-12T08:03:27.445Z,23.30
2019-01-12T08:05:57.146Z,21.83
2019-01-12T08:08:26.998Z,19.73
2019-01-12T08:10:56.825Z,22.50
2019-01-12T08:13:26.656Z,20.90
2019-01-12T08:15:56.458Z,26.00
2019-01-12T08:18:26.097Z,25.03
2019-01-12T08:20:58.606Z,19.53
2019-01-12T08:23:28.010Z,20.73
2019-01-12T08:26:00.134Z,23.37
2019-01-12T08:28:30.036Z,22.67
2019-01-12T08:30:59.844Z,21.80
2019-01-12T08:33:29.671Z,21.37
2019-01-12T08:35:59.417Z,20.27
2019-01-12T08:38:29.243Z,19.90
2019-01-12T08:40:58.870Z,22.00
2019-01-12T08:43:28.795Z,21.13
2019-01-12T08:45:59.557Z,19.90
2019-01-12T08:48:29.483Z,21.77
2019-01-12T08:51:01.563Z,20.70
2019-01-12T08:53:31.387Z,19.63
2019-01-12T08:56:01.036Z,18.73
2019-01-12T08:58:30.741Z,20.90
2019-01-12T09:01:00.685Z,18.93
2019-01-12T09:03:30.496Z,20.00
2019-01-12T09:06:00.347Z,26.67
2019-01-12T09:08:30.174Z,23.47
2019-01-12T09:10:59.997Z,16.23
2019-01-12T09:13:29.822Z,16.87
2019-01-12T09:15:59.551Z,21.40
2019-01-12T09:18:29.485Z,17.00
2019-01-12T09:20:59.409Z,16.13
2019-01-12T09:23:29.236Z,18.37
2019-01-12T09:25:59.092Z,21.50
2019-01-12T09:28:28.998Z,19.07
2019-01-12T09:30:58.838Z,17.27
2019-01-12T09:33:28.359Z,17.20
2019-01-12T09:35:58.192Z,16.07
2019-01-12T09:38:28.017Z,16.73
2019-01-12T09:40:57.964Z,16.57
2019-01-12T09:43:27.569Z,27.03
2019-01-12T09:45:57.512Z,19.13
2019-01-12T09:48:27.438Z,17.70
2019-01-12T09:50:57.233Z,20.97
2019-01-12T09:53:26.967Z,16.73
2019-01-12T09:55:56.828Z,17.20
2019-01-12T09:58:26.671Z,20.90
2019-01-12T10:00:56.491Z,16.87
2019-01-12T10:03:26.303Z,14.23
2019-01-12T10:05:56.168Z,11.87
2019-01-12T10:08:26.057Z,15.10
2019-01-12T10:10:55.595Z,12.30
2019-01-12T10:13:25.417Z,15.80
2019-01-12T10:15:55.258Z,14.30
2019-01-12T10:18:24.962Z,14.77
2019-01-12T10:20:54.913Z,13.50
2019-01-12T10:23:24.728Z,12.87
2019-01-12T10:25:54.660Z,16.50
2019-01-12T10:28:25.605Z,24.93
2019-01-12T10:30:55.466Z,26.27
2019-01-12T10:33:25.275Z,33.40
2019-01-12T10:35:55.116Z,39.10
2019-01-12T10:38:24.852Z,33.67
2019-01-12T10:40:54.669Z,42.30
2019-01-12T10:43:27.040Z,37.63
2019-01-12T10:45:56.810Z,36.37
2019-01-12T10:48:27.491Z,38.70
2019-01-12T10:50:57.159Z,42.30
2019-01-12T10:53:27.090Z,47.90
2019-01-12T10:55:56.921Z,49.73
2019-01-12T10:58:26.624Z,55.27
2019-01-12T11:00:56.376Z,57.10
2019-01-12T11:03:28.463Z,61.53
2019-01-12T11:05:58.212Z,60.53
2019-01-12T11:08:28.111Z,62.10
2019-01-12T11:10:58.276Z,62.67
2019-01-12T11:13:27.956Z,62.53
2019-01-12T11:15:57.821Z,62.90
2019-01-12T11:18:27.421Z,61.70
2019-01-12T11:20:57.382Z,59.93
2019-01-12T11:23:27.085Z,68.20
2019-01-12T11:25:57.049Z,105.07
2019-01-12T11:28:26.958Z,101.03
2019-01-12T11:30:56.980Z,90.93
2019-01-12T11:33:26.804Z,90.43
2019-01-12T11:35:56.657Z,82.67
2019-01-12T11:38:26.372Z,82.80
2019-01-12T11:40:56.300Z,81.50
2019-01-12T11:43:26.224Z,81.13
2019-01-12T11:45:56.073Z,77.13
2019-01-12T11:48:25.994Z,83.57
2019-01-12T11:51:05.596Z,75.50
2019-01-12T11:53:35.582Z,75.43
2019-01-12T11:56:05.410Z,75.73
2019-01-12T11:58:35.224Z,74.70
2019-01-12T12:01:05.073Z,68.60
2019-01-12T12:03:34.998Z,71.03
2019-01-12T12:06:05.733Z,66.30
2019-01-12T12:08:35.376Z,67.47
2019-01-12T12:11:05.196Z,63.90
2019-01-12T12:13:35.015Z,65.17
2019-01-12T12:16:04.769Z,65.60
2019-01-12T12:18:34.583Z,61.30
2019-01-12T12:21:06.171Z,31.33
2019-01-12T12:23:35.909Z,29.70
2019-01-12T12:26:05.717Z,40.23
2019-01-12T12:28:35.534Z,42.17
2019-01-12T12:31:05.389Z,42.17
2019-01-12T12:33:35.298Z,40.90
2019-01-12T12:36:05.150Z,42.77
2019-01-12T12:38:34.955Z,41.93
2019-01-12T12:41:04.596Z,40.80
2019-01-12T12:43:34.424Z,40.73
2019-01-12T12:46:04.465Z,37.13
2019-01-12T12:48:34.373Z,37.00
2019-01-12T12:51:04.144Z,36.17
2019-01-12T12:53:34.485Z,37.27
2019-01-12T12:56:04.174Z,36.37
2019-01-12T12:58:33.824Z,34.30
2019-01-12T13:01:03.845Z,38.83
2019-01-12T13:03:33.787Z,36.33
2019-01-12T13:06:03.580Z,39.80
2019-01-12T13:08:33.312Z,39.60
2019-01-12T13:11:03.258Z,37.50
2019-01-12T13:29:50.375Z,44.87
2019-01-12T13:32:20.185Z,51.70
2019-01-12T13:34:49.930Z,46.80
2019-01-12T13:37:19.761Z,46.90
2019-01-12T13:39:49.540Z,46.20
2019-01-12T13:42:19.187Z,43.33
2019-01-12T13:44:50.448Z,43.03
2019-01-12T13:47:20.906Z,43.27
2019-01-12T13:49:50.823Z,39.73
2019-01-12T13:52:32.040Z,39.30
2019-01-12T13:55:12.432Z,40.33
2019-01-12T13:57:47.403Z,39.27
2019-01-12T14:00:25.453Z,37.17
2019-01-12T14:02:55.397Z,36.13
2019-01-12T14:05:25.125Z,36.20
2019-01-12T14:07:56.403Z,35.70
2019-01-12T14:10:26.630Z,34.67
2019-01-12T14:12:56.462Z,34.30
2019-01-12T14:15:26.277Z,32.80
2019-01-12T14:17:56.222Z,32.37
2019-01-12T14:20:30.847Z,32.67
2019-01-12T14:23:00.670Z,31.60
2019-01-12T14:25:31.513Z,31.43
2019-01-12T14:28:01.296Z,32.20
2019-01-12T14:30:31.083Z,31.73
2019-01-12T14:33:00.804Z,30.47
2019-01-12T14:35:30.534Z,29.83
2019-01-12T14:38:00.369Z,29.43
2019-01-12T14:40:30.505Z,28.53
2019-01-12T14:43:00.557Z,28.53
2019-01-12T14:45:31.591Z,26.57
2019-01-12T14:48:01.537Z,26.23
2019-01-12T14:50:31.460Z,27.47
2019-01-12T14:53:01.185Z,26.27
2019-01-12T14:55:31.024Z,25.70
2019-01-12T14:58:03.018Z,24.73
2019-01-12T15:00:33.027Z,25.33
2019-01-12T15:03:02.674Z,25.90
2019-01-12T15:05:33.492Z,27.63
2019-01-12T15:08:03.133Z,31.40
2019-01-12T15:10:32.756Z,31.30
2019-01-12T15:13:02.584Z,34.63
2019-01-12T15:15:32.504Z,34.90
2019-01-12T15:18:02.360Z,35.10
2019-01-12T15:20:32.388Z,36.83
2019-01-12T15:23:02.317Z,37.83
2019-01-12T15:25:32.038Z,40.80
2019-01-12T15:28:08.742Z,38.27
2019-01-12T15:30:33.229Z,36.10
2019-01-12T15:33:05.439Z,35.00
2019-01-12T15:35:35.968Z,37.10
2019-01-12T15:38:05.801Z,40.33
2019-01-12T15:40:35.616Z,42.17
2019-01-12T15:43:05.252Z,43.57
2019-01-12T15:45:35.177Z,44.77
2019-01-12T15:48:05.012Z,46.17
2019-01-12T15:50:34.725Z,48.40
2019-01-12T15:53:04.553Z,48.73
2019-01-12T15:55:34.387Z,49.70
2019-01-12T15:58:04.513Z,52.37
2019-01-12T16:00:34.168Z,48.20
2019-01-12T16:03:04.206Z,49.10
2019-01-12T16:05:34.125Z,49.80
2019-01-12T16:08:03.959Z,55.17
2019-01-12T16:10:33.771Z,55.70
2019-01-12T16:13:03.480Z,56.47
2019-01-12T16:15:33.448Z,60.23
2019-01-12T16:18:03.058Z,62.97
2019-01-12T16:20:40.275Z,65.03
2019-01-12T16:23:11.057Z,68.33
2019-01-12T16:25:40.941Z,66.50
2019-01-12T16:28:10.780Z,68.40
2019-01-12T16:30:40.417Z,64.40
2019-01-12T16:33:10.116Z,63.90
2019-01-12T16:35:39.957Z,63.47
2019-01-12T16:38:09.881Z,61.13
2019-01-12T16:40:39.525Z,58.90
2019-01-12T16:43:09.332Z,58.97
2019-01-12T16:45:39.150Z,56.30
2019-01-12T16:48:08.880Z,56.77
2019-01-12T16:50:38.728Z,56.60
2019-01-12T16:53:08.755Z,52.50
2019-01-12T16:55:38.593Z,54.30
2019-01-12T16:58:08.615Z,54.17
2019-01-12T17:00:38.350Z,54.60
2019-01-12T17:03:08.280Z,56.67
2019-01-12T17:05:38.213Z,53.93
2019-01-12T17:08:07.846Z,50.97
2019-01-12T17:10:37.594Z,49.80
2019-01-12T17:13:07.488Z,49.57
2019-01-12T17:15:37.338Z,69.50
2019-01-12T17:18:07.153Z,47.70
2019-01-12T17:20:37.079Z,47.17
2019-01-12T17:23:07.223Z,60.40
2019-01-12T17:25:36.951Z,57.23
2019-01-12T17:28:06.674Z,56.33
2019-01-12T17:30:36.495Z,80.60
2019-01-12T17:33:06.349Z,39.17
2019-01-12T17:35:36.172Z,44.00
2019-01-12T17:38:06.829Z,47.00
2019-01-12T17:40:36.430Z,49.13
2019-01-12T17:43:06.272Z,48.80
2019-01-12T17:45:36.094Z,47.37
2019-01-12T17:48:05.821Z,44.50
2019-01-12T17:50:36.461Z,43.57
2019-01-12T17:53:06.399Z,45.07
2019-01-12T17:55:36.238Z,42.20
2019-01-12T17:58:06.057Z,41.47
2019-01-12T18:00:49.299Z,41.67
2019-01-12T18:03:19.118Z,41.00
2019-01-12T18:05:49.015Z,39.70
2019-01-12T18:08:18.472Z,39.03
2019-01-12T18:10:48.314Z,39.60
2019-01-12T18:13:18.235Z,39.40
2019-01-12T18:15:48.177Z,39.20
2019-01-12T18:18:17.992Z,37.90
2019-01-12T18:20:47.828Z,40.10
2019-01-12T18:23:17.625Z,36.50
2019-01-12T18:25:47.177Z,38.70
2019-01-12T18:28:16.700Z,40.17
2019-01-12T18:30:46.750Z,41.70
2019-01-12T18:33:16.658Z,41.67
2019-01-12T18:35:46.507Z,39.20
2019-01-12T18:38:16.324Z,39.20
2019-01-12T18:40:46.171Z,40.50
2019-01-12T18:43:16.089Z,40.63
2019-01-12T18:45:45.612Z,41.07
2019-01-12T18:48:15.424Z,39.83
2019-01-12T18:50:45.595Z,37.90
2019-01-12T18:53:15.390Z,38.63
2019-01-12T18:55:45.246Z,37.70
2019-01-12T18:58:15.048Z,37.27
2019-01-12T19:00:44.914Z,35.80
2019-01-12T19:03:14.722Z,36.60
2019-01-12T19:05:44.462Z,36.50
2019-01-12T19:08:14.376Z,35.03
2019-01-12T19:10:44.212Z,34.97
2019-01-12T19:13:13.835Z,34.63
2019-01-12T19:15:43.655Z,35.20
2019-01-12T19:18:13.263Z,32.90
2019-01-12T19:20:43.016Z,31.47
2019-01-12T19:23:14.081Z,32.07
2019-01-12T19:25:43.811Z,31.23
2019-01-12T19:28:13.737Z,29.00
2019-01-12T19:30:43.785Z,30.50
2019-01-12T19:33:13.692Z,29.43
2019-01-12T19:35:43.678Z,26.80
2019-01-12T19:38:13.465Z,28.13
2019-01-12T19:40:43.193Z,27.37
2019-01-12T19:43:13.021Z,25.53
2019-01-12T19:45:42.747Z,25.23
2019-01-12T19:48:12.673Z,25.03
2019-01-12T19:50:42.572Z,23.50
2019-01-12T19:53:12.428Z,24.13
2019-01-12T19:55:42.454Z,24.87
2019-01-12T19:58:12.272Z,22.83
2019-01-12T20:00:41.932Z,22.80
2019-01-12T20:03:13.810Z,22.73
2019-01-12T20:05:43.746Z,21.10
2019-01-12T20:08:13.668Z,20.83
2019-01-12T20:10:43.596Z,20.60
2019-01-12T20:13:13.520Z,20.07
2019-01-12T20:15:43.461Z,19.13
2019-01-12T20:18:13.282Z,19.40
2019-01-12T20:20:43.227Z,18.57
2019-01-12T20:23:13.166Z,19.30
2019-01-12T20:25:42.982Z,18.63
2019-01-12T20:28:15.460Z,17.43
2019-01-12T20:31:47.229Z,18.00
2019-01-12T20:34:33.623Z,18.90
2019-01-12T20:37:58.222Z,16.40
2019-01-12T20:40:57.258Z,17.03
2019-01-12T20:43:38.980Z,18.23
2019-01-12T20:46:40.524Z,17.80
2019-01-12T20:49:33.868Z,20.10
2019-01-12T20:52:29.392Z,18.20
2019-01-12T20:55:35.457Z,19.27
2019-01-12T20:58:58.507Z,18.37
2019-01-12T21:02:24.322Z,16.70
2019-01-12T21:05:22.165Z,17.10
2019-01-12T21:08:19.770Z,26.03
2019-01-12T21:11:21.019Z,16.57
2019-01-12T21:14:27.075Z,15.97
2019-01-12T21:17:03.339Z,16.80
2019-01-12T21:19:34.655Z,16.40
2019-01-12T21:22:04.536Z,15.30
2019-01-12T21:24:34.464Z,15.50
2019-01-12T21:27:04.306Z,15.10
2019-01-12T21:29:35.236Z,13.87
2019-01-12T21:32:05.300Z,14.27
2019-01-12T21:34:35.494Z,13.97
2019-01-12T21:37:05.229Z,15.10
2019-01-12T21:39:35.068Z,57.77
2019-01-12T21:42:04.904Z,38.27
2019-01-12T21:44:34.843Z,34.47
2019-01-12T21:47:04.456Z,34.90
2019-01-12T21:49:34.290Z,32.90
2019-01-12T21:52:04.201Z,30.20
2019-01-12T21:54:33.987Z,30.63
2019-01-12T21:57:03.829Z,31.30
2019-01-12T21:59:33.763Z,31.10
2019-01-12T22:02:03.712Z,34.00
2019-01-12T22:04:33.434Z,32.20
2019-01-12T22:07:03.340Z,32.47
2019-01-12T22:09:33.100Z,31.87
2019-01-12T22:12:02.898Z,32.40
2019-01-12T22:14:32.831Z,32.20
2019-01-12T22:17:02.666Z,30.70
2019-01-12T22:19:32.498Z,30.87
2019-01-12T22:22:02.235Z,30.67
2019-01-12T22:24:32.000Z,31.10
2019-01-12T22:27:01.791Z,31.83
2019-01-12T22:29:31.709Z,33.43
2019-01-12T22:32:01.540Z,32.03
2019-01-12T22:34:31.291Z,31.23
2019-01-12T22:37:01.101Z,32.03
2019-01-12T22:39:30.944Z,31.77
2019-01-12T22:42:00.550Z,33.47
2019-01-12T22:44:30.508Z,31.90
2019-01-12T22:47:02.013Z,31.87
2019-01-12T22:49:31.766Z,32.63
2019-01-12T22:52:01.612Z,33.17
2019-01-12T22:54:31.340Z,32.53
2019-01-12T22:57:01.260Z,32.63
2019-01-12T22:59:30.801Z,31.90
2019-01-12T23:02:02.540Z,35.10
2019-01-12T23:04:32.807Z,32.77
2019-01-12T23:07:11.101Z,32.80
2019-01-12T23:09:33.905Z,32.67
2019-01-12T23:12:03.819Z,32.30
2019-01-12T23:14:33.447Z,32.63
2019-01-12T23:17:03.377Z,32.37
2019-01-12T23:19:33.108Z,31.47
2019-01-12T23:22:03.049Z,31.47
2019-01-12T23:24:32.975Z,32.77
2019-01-12T23:27:02.904Z,32.93
2019-01-12T23:29:32.941Z,31.57
2019-01-12T23:32:02.783Z,32.47
2019-01-12T23:34:32.492Z,30.90
2019-01-12T23:37:02.335Z,31.83
2019-01-12T23:39:32.254Z,32.73
2019-01-12T23:42:02.099Z,32.33
2019-01-12T23:44:31.906Z,31.60
2019-01-12T23:47:01.757Z,31.77
2019-01-12T23:49:31.662Z,31.17
2019-01-12T23:52:02.317Z,31.93
2019-01-12T23:54:34.257Z,32.70
2019-01-12T23:57:04.447Z,30.50
2019-01-12T23:59:34.163Z,31.27
